Time;durP1;ratioP1;P1;durP2;ratioP2;P2;SDS_P1;SDS_P2;PMS_P1;PMS_P2;Temp;Humidity;BMP_temperature;BMP_pressure;BME280_temperature;BME280_humidity;BME280_pressure;Samples;Min_cycle;Max_cycle;Signal;HPM_P1;HPM_P2
2022/11/10 00:00:32;;;;;;;22.98;13.68;;;;;;;10.28;51.23;94490.63;5099256;27;20027;-77
2022/11/10 00:03:05;;;;;;;26.83;14.32;;;;;;;10.19;51.23;94481.75;5099610;27;20027;-77
2022/11/10 00:05:31;;;;;;;19.95;12.70;;;;;;;10.26;51.50;94490.13;5092438;28;20062;-77
2022/11/10 00:08:01;;;;;;;22.40;13.55;;;;;;;10.05;51.23;94457.03;5093988;27;20055;-77
2022/11/10 00:10:27;;;;;;;20.45;13.60;;;;;;;10.13;51.52;94469.63;5086618;28;20335;-78
2022/11/10 00:12:52;;;;;;;22.77;14.48;;;;;;;10.18;51.44;94482.81;5098592;27;20536;-78
2022/11/10 00:18:03;;;;;;;21.98;13.90;;;;;;;10.24;51.23;94486.97;5100549;27;20034;-78
2022/11/10 00:20:29;;;;;;;25.52;13.52;;;;;;;10.17;51.51;94481.25;5101111;27;20109;-78
2022/11/10 00:22:55;;;;;;;21.90;13.15;;;;;;;10.19;51.35;94479.09;5079631;27;20027;-77
2022/11/10 00:25:21;;;;;;;23.08;14.68;;;;;;;10.24;51.47;94491.50;5089068;28;20024;-77
2022/11/10 00:27:48;;;;;;;20.15;12.45;;;;;;;10.10;51.40;94470.22;5080917;28;20052;-77
2022/11/10 00:30:14;;;;;;;21.33;12.30;;;;;;;10.22;51.03;94483.81;5098754;27;20027;-77
2022/11/10 00:32:39;;;;;;;19.83;11.55;;;;;;;10.17;51.39;94480.47;5098397;27;20110;-77
2022/11/10 00:35:06;;;;;;;21.70;13.85;;;;;;;10.09;51.45;94468.66;5099902;27;20030;-77
2022/11/10 00:37:32;;;;;;;21.30;13.27;;;;;;;10.13;51.19;94469.63;5099151;28;20110;-77
2022/11/10 00:39:57;;;;;;;21.98;13.23;;;;;;;9.91;50.93;94437.63;5099106;27;20020;-78
2022/11/10 00:42:23;;;;;;;22.90;13.57;;;;;;;10.12;51.16;94478.69;5099227;27;20020;-78
2022/11/10 00:44:48;;;;;;;28.70;15.32;;;;;;;10.10;50.96;94472.88;5079238;28;20045;-78
2022/11/10 00:47:14;;;;;;;23.38;13.10;;;;;;;9.85;51.27;94430.81;5097953;27;20348;-78
2022/11/10 00:49:39;;;;;;;21.27;13.38;;;;;;;9.82;51.47;94426.09;5098735;27;20077;-78
2022/11/10 00:52:04;;;;;;;25.33;13.95;;;;;;;9.84;51.57;94434.53;5094759;27;20632;-78
2022/11/10 00:54:30;;;;;;;24.15;14.32;;;;;;;9.86;51.42;94435.06;5098799;27;20047;-77
2022/11/10 00:56:55;;;;;;;22.27;12.70;;;;;;;9.83;51.37;94438.28;5098441;27;20015;-77
2022/11/10 00:59:20;;;;;;;22.08;13.63;;;;;;;9.80;51.41;94434.34;5097312;27;20027;-77
2022/11/10 01:01:46;;;;;;;24.95;13.65;;;;;;;9.78;51.33;94435.75;5099557;27;20023;-76
2022/11/10 01:04:11;;;;;;;25.00;15.57;;;;;;;9.95;51.28;94465.19;5080217;28;20023;-77
2022/11/10 01:06:37;;;;;;;23.77;15.77;;;;;;;9.74;51.42;94434.72;5096759;27;20059;-77
2022/11/10 01:09:03;;;;;;;22.77;13.32;;;;;;;9.93;51.46;94467.31;5096504;27;20062;-77
2022/11/10 01:11:28;;;;;;;27.20;14.63;;;;;;;9.86;51.46;94456.31;5096239;27;20028;-77
2022/11/10 01:13:55;;;;;;;22.23;13.25;;;;;;;9.61;51.10;94417.69;5098757;27;20114;-78
2022/11/10 01:16:23;;;;;;;23.73;13.15;;;;;;;9.82;51.46;94447.34;5100789;27;20498;-76
2022/11/10 01:18:50;;;;;;;24.40;12.57;;;;;;;9.91;51.40;94460.75;5095121;27;20027;-78
2022/11/10 01:21:16;;;;;;;22.65;12.93;;;;;;;9.89;51.65;94458.38;5100256;27;20044;-78
2022/11/10 01:23:42;;;;;;;22.70;14.20;;;;;;;9.85;51.49;94446.75;5098882;27;20527;-77
2022/11/10 01:26:07;;;;;;;24.75;13.98;;;;;;;9.57;51.53;94407.94;5094403;27;20079;-79
2022/11/10 01:28:34;;;;;;;24.13;14.38;;;;;;;9.91;51.38;94456.22;5083962;27;20076;-76
2022/11/10 01:31:03;;;;;;;26.73;15.18;;;;;;;9.82;51.39;94442.03;5094827;27;20133;-77
2022/11/10 01:33:28;;;;;;;23.98;14.25;;;;;;;9.89;51.25;94456.50;5096726;27;20039;-79
2022/11/10 01:35:54;;;;;;;22.45;13.05;;;;;;;9.93;51.20;94453.28;5093668;27;20474;-78
2022/11/10 01:38:20;;;;;;;22.35;14.10;;;;;;;9.91;51.54;94456.22;5097522;27;20032;-78
2022/11/10 01:40:45;;;;;;;20.85;13.02;;;;;;;9.85;51.46;94442.22;5077469;27;20028;-78
2022/11/10 01:43:11;;;;;;;16.80;11.85;;;;;;;9.89;51.67;94447.75;5092004;28;20031;-77
2022/11/10 01:46:02;;;;;;;20.05;12.57;;;;;;;9.88;51.32;94457.59;5095088;27;20036;-77
2022/11/10 01:48:33;;;;;;;23.77;14.75;;;;;;;9.78;51.21;94435.75;5083722;27;20024;-77
2022/11/10 01:51:04;;;;;;;23.75;13.18;;;;;;;9.40;51.31;94385.38;5076573;28;20216;-78
2022/11/10 01:53:35;;;;;;;22.27;14.38;;;;;;;9.79;51.27;94450.56;5077628;27;20027;-78
2022/11/10 01:56:01;;;;;;;22.30;13.15;;;;;;;9.69;51.32;94438.25;5083931;28;20607;-77
2022/11/10 01:58:32;;;;;;;23.38;13.02;;;;;;;9.73;51.31;94441.13;5097246;28;20483;-76
2022/11/10 02:00:57;;;;;;;23.98;12.93;;;;;;;9.59;51.54;94421.69;5093868;27;20027;-75
2022/11/10 02:03:41;;;;;;;19.42;11.30;;;;;;;9.75;51.29;94453.03;5093482;27;20166;-78
2022/11/10 02:06:08;;;;;;;17.70;11.13;;;;;;;9.72;51.32;94447.53;5082348;27;20047;-77
2022/11/10 02:08:34;;;;;;;19.55;10.77;;;;;;;9.59;51.06;94429.66;5094644;28;20133;-78
2022/11/10 02:10:59;;;;;;;15.68;10.40;;;;;;;9.62;51.17;94437.06;5093738;27;20778;-77
2022/11/10 02:13:25;;;;;;;20.85;10.25;;;;;;;9.73;50.91;94449.09;5098861;27;20038;-77
2022/11/10 02:15:50;;;;;;;16.65;10.40;;;;;;;9.59;51.09;94433.13;5096552;27;20031;-77
2022/11/10 02:18:16;;;;;;;18.63;9.98;;;;;;;9.51;51.04;94428.47;5081740;28;20030;-78
2022/11/10 02:20:45;;;;;;;16.65;10.30;;;;;;;9.58;51.13;94433.44;5096247;27;20039;-77
2022/11/10 02:23:34;;;;;;;17.80;11.35;;;;;;;9.63;51.17;94454.59;5077285;28;20244;-76
2022/11/10 02:26:01;;;;;;;20.00;12.13;;;;;;;9.42;51.89;94440.84;5092823;27;20028;-78
2022/11/10 02:28:26;;;;;;;17.52;10.60;;;;;;;9.49;51.72;94470.44;5096375;28;20017;-77
2022/11/10 02:30:52;;;;;;;15.82;10.30;;;;;;;9.37;51.49;94462.94;5096742;27;20035;-77
2022/11/10 02:33:19;;;;;;;16.58;10.82;;;;;;;9.45;51.77;94472.13;5092288;28;20031;-76
2022/11/10 02:35:47;;;;;;;16.60;10.68;;;;;;;9.18;51.58;94427.69;5097156;28;20023;-78
2022/11/10 02:38:13;;;;;;;24.33;11.45;;;;;;;9.13;51.77;94414.50;5093065;27;21073;-77
2022/11/10 02:40:39;;;;;;;17.15;10.00;;;;;;;9.26;51.52;94440.28;5094643;28;20027;-77
2022/11/10 02:43:08;;;;;;;19.77;9.50;;;;;;;9.49;51.50;94475.00;5095016;27;20560;-76
2022/11/10 02:45:33;;;;;;;20.08;11.23;;;;;;;9.31;51.23;94448.19;5096483;28;20023;-76
2022/11/10 02:47:59;;;;;;;13.40;8.45;;;;;;;9.45;51.38;94478.22;5096903;28;20023;-77
2022/11/10 02:50:24;;;;;;;16.58;10.95;;;;;;;9.33;50.96;94459.31;5076767;28;20588;-78
2022/11/10 02:52:49;;;;;;;16.77;10.27;;;;;;;9.15;51.58;94457.44;5094321;28;20123;-77
2022/11/10 02:55:15;;;;;;;15.27;9.75;;;;;;;9.18;51.44;94462.19;5093697;28;20026;-77
2022/11/10 02:57:40;;;;;;;21.15;10.00;;;;;;;9.18;51.69;94456.88;5096032;28;20024;-77
2022/11/10 03:00:07;;;;;;;16.42;10.90;;;;;;;9.01;51.70;94440.63;5095886;28;20027;-77
2022/11/10 03:02:33;;;;;;;22.10;11.25;;;;;;;9.11;51.77;94453.78;5095075;28;20031;-77
2022/11/10 03:04:58;;;;;;;20.10;11.32;;;;;;;8.87;51.83;94448.53;5096822;28;20420;-78
2022/11/10 03:07:24;;;;;;;20.45;11.57;;;;;;;9.15;52.07;94477.88;5092293;28;20039;-78
2022/11/10 03:09:49;;;;;;;21.92;12.57;;;;;;;9.05;52.08;94454.13;5084655;28;20138;-76
2022/11/10 03:12:15;;;;;;;16.73;10.35;;;;;;;9.06;51.90;94461.78;5095544;28;20028;-78
2022/11/10 03:14:41;;;;;;;17.80;10.30;;;;;;;8.78;51.71;94418.41;5096840;28;20099;-77
2022/11/10 03:17:06;;;;;;;17.80;10.65;;;;;;;8.98;51.79;94449.19;5093669;28;22284;-78
2022/11/10 03:19:31;;;;;;;14.90;9.77;;;;;;;9.20;51.41;94483.09;5085914;28;20064;-77
2022/11/10 03:21:57;;;;;;;12.93;8.68;;;;;;;8.77;51.41;94424.00;5096198;28;20804;-77
2022/11/10 03:24:22;;;;;;;15.02;9.27;;;;;;;9.16;51.24;94485.56;5094648;28;20029;-77
2022/11/10 03:26:48;;;;;;;24.60;12.15;;;;;;;9.03;51.51;94470.34;5095092;28;20509;-77
2022/11/10 03:29:13;;;;;;;21.02;11.93;;;;;;;8.80;52.01;94447.31;5093502;28;20023;-76
2022/11/10 03:31:38;;;;;;;27.38;13.18;;;;;;;8.83;52.57;94446.72;5078830;28;20027;-79
2022/11/10 03:34:04;;;;;;;22.45;11.77;;;;;;;8.96;52.46;94467.25;5093212;28;20600;-78
2022/11/10 03:36:29;;;;;;;21.48;12.75;;;;;;;8.96;52.27;94457.41;5092682;28;20024;-77
2022/11/10 03:38:55;;;;;;;20.30;11.25;;;;;;;8.96;51.84;94462.72;5099415;27;20052;-77
2022/11/10 03:41:21;;;;;;;14.65;8.43;;;;;;;9.12;51.82;94492.53;5095472;27;20035;-77
2022/11/10 03:43:47;;;;;;;15.90;9.88;;;;;;;8.82;51.60;94459.22;5086978;28;20024;-77
2022/11/10 03:46:12;;;;;;;16.00;9.75;;;;;;;9.01;51.63;94488.38;5083348;28;20019;-78
2022/11/10 03:48:38;;;;;;;14.85;8.82;;;;;;;8.90;51.27;94463.09;5081553;28;20399;-77
2022/11/10 03:51:03;;;;;;;15.68;8.88;;;;;;;9.07;51.46;94491.78;5098829;27;20051;-77
2022/11/10 03:53:28;;;;;;;13.23;7.50;;;;;;;8.82;51.27;94456.56;5098079;27;20024;-77
2022/11/10 03:55:54;;;;;;;16.08;8.55;;;;;;;9.00;50.92;94484.16;5081142;27;20924;-77
2022/11/10 03:58:19;;;;;;;12.57;7.75;;;;;;;9.03;51.06;94496.88;5098507;27;20020;-78
2022/11/10 04:00:45;;;;;;;12.10;7.35;;;;;;;8.77;50.92;94456.63;5093601;27;20554;-78
2022/11/10 04:03:10;;;;;;;13.02;6.70;;;;;;;9.01;50.43;94491.03;5082950;28;20024;-76
2022/11/10 04:11:04;;;;;;;14.00;8.27;;;;;;;8.78;50.73;94465.38;5097957;27;20033;-78
2022/11/10 04:16:13;;;;;;;15.95;7.72;;;;;;;8.91;50.72;94485.88;5097765;27;20054;-78
2022/11/10 04:18:39;;;;;;;12.73;7.47;;;;;;;8.97;50.63;94500.66;5096965;27;20024;-77
2022/11/10 04:21:05;;;;;;;12.15;7.18;;;;;;;8.85;50.42;94485.16;5093982;27;20414;-77
2022/11/10 04:23:35;;;;;;;9.73;6.43;;;;;;;8.72;50.38;94462.00;5097410;27;20437;-78
2022/11/10 04:28:51;;;;;;;11.95;6.63;;;;;;;8.92;50.42;94508.69;5097798;27;20035;-79
2022/11/10 04:31:18;;;;;;;13.77;6.88;;;;;;;8.90;50.30;94508.19;5091666;28;20043;-76
2022/11/10 04:33:44;;;;;;;13.32;6.90;;;;;;;8.93;50.22;94516.38;5093253;27;20092;-78
2022/11/10 04:36:13;;;;;;;13.38;7.85;;;;;;;8.95;50.45;94508.88;5090471;27;20028;-77
2022/11/10 04:38:39;;;;;;;14.90;6.70;;;;;;;8.92;50.07;94501.50;5074176;28;20028;-78
2022/11/10 04:41:05;;;;;;;13.32;7.43;;;;;;;8.82;50.30;94493.69;5093599;27;20365;-78
2022/11/10 04:43:30;;;;;;;12.75;7.97;;;;;;;8.55;50.22;94453.75;5091450;27;20035;-79
2022/11/10 04:45:57;;;;;;;13.07;7.05;;;;;;;8.77;50.30;94500.91;5092595;27;20061;-77
2022/11/10 04:48:23;;;;;;;12.60;7.53;;;;;;;8.72;50.11;94493.81;5091461;27;20375;-79
2022/11/10 04:50:48;;;;;;;14.23;8.85;;;;;;;8.80;50.51;94497.72;5089717;27;20031;-78
2022/11/10 04:53:14;;;;;;;15.52;9.40;;;;;;;8.85;50.55;94510.91;5095666;27;20020;-77
2022/11/10 04:55:41;;;;;;;14.45;8.98;;;;;;;8.68;50.47;94482.19;5090153;27;20456;-77
2022/11/10 04:58:07;;;;;;;16.27;9.40;;;;;;;8.82;50.41;94503.50;5092879;27;20048;-76
2022/11/10 05:00:34;;;;;;;15.02;8.95;;;;;;;8.71;50.50;94486.13;5090673;27;20100;-76
2022/11/10 05:03:01;;;;;;;18.10;8.45;;;;;;;8.83;50.27;94505.88;5091280;27;20403;-77
2022/11/10 05:05:27;;;;;;;16.25;8.57;;;;;;;8.89;50.25;94514.56;5088273;27;20034;-77
2022/11/10 05:07:52;;;;;;;14.75;8.80;;;;;;;8.62;50.04;94480.69;5069985;28;20031;-76
2022/11/10 05:10:18;;;;;;;13.45;8.48;;;;;;;8.49;50.46;94468.13;5075111;28;20028;-77
2022/11/10 05:12:43;;;;;;;12.13;8.07;;;;;;;8.72;50.61;94506.28;5075040;28;20795;-77
2022/11/10 05:15:09;;;;;;;13.75;9.02;;;;;;;8.71;50.36;94528.56;5092916;27;20027;-77
2022/11/10 05:17:35;;;;;;;16.73;8.98;;;;;;;8.75;50.33;94524.28;5091132;27;20501;-76
2022/11/10 05:20:00;;;;;;;17.40;10.02;;;;;;;8.49;50.39;94495.44;5092808;27;20048;-77
2022/11/10 05:22:25;;;;;;;21.13;9.65;;;;;;;8.63;50.68;94521.25;5089345;27;20036;-77
2022/11/10 05:24:51;;;;;;;19.80;9.70;;;;;;;8.71;50.59;94533.88;5093066;27;20020;-76
2022/11/10 05:27:16;;;;;;;16.30;10.15;;;;;;;8.73;50.84;94537.84;5091208;27;20027;-77
2022/11/10 05:29:42;;;;;;;17.52;10.13;;;;;;;8.73;51.02;94539.69;5090797;27;20536;-76
2022/11/10 05:32:07;;;;;;;23.00;10.65;;;;;;;8.74;50.71;94533.31;5089736;27;20029;-76
2022/11/10 05:34:33;;;;;;;16.58;9.73;;;;;;;8.43;50.92;94487.81;5087184;27;20336;-76
2022/11/10 05:36:58;;;;;;;16.15;10.88;;;;;;;8.62;50.90;94509.84;5091579;27;20026;-77
2022/11/10 05:39:23;;;;;;;20.17;11.95;;;;;;;8.40;51.01;94483.88;5091507;27;20809;-76
2022/11/10 05:41:50;;;;;;;19.98;10.77;;;;;;;8.60;51.15;94509.34;5088117;27;20111;-76
2022/11/10 05:44:15;;;;;;;18.77;10.93;;;;;;;8.51;51.13;94503.88;5072488;28;20028;-76
2022/11/10 05:46:41;;;;;;;20.58;12.60;;;;;;;8.35;51.34;94489.22;5091765;27;20030;-76
2022/11/10 05:49:07;;;;;;;19.85;11.35;;;;;;;8.70;51.59;94542.91;5088640;28;20431;-77
2022/11/10 05:51:32;;;;;;;22.00;14.32;;;;;;;8.49;51.56;94516.63;5089515;27;20020;-76
2022/11/10 05:53:57;;;;;;;31.08;17.38;;;;;;;8.46;51.74;94511.88;5087487;27;20080;-77
2022/11/10 05:56:23;;;;;;;28.42;16.85;;;;;;;8.72;52.29;94551.38;5075179;28;20088;-77
2022/11/10 05:58:48;;;;;;;27.70;16.85;;;;;;;8.68;52.40;94545.06;5088532;27;20069;-76
2022/11/10 06:01:14;;;;;;;31.95;17.77;;;;;;;8.70;52.69;94553.53;5072129;28;20030;-76
2022/11/10 06:03:39;;;;;;;30.13;16.83;;;;;;;8.65;53.05;94535.03;5090061;27;20415;-77
2022/11/10 06:06:05;;;;;;;27.73;16.27;;;;;;;8.81;53.09;94560.28;5069653;28;20057;-78
2022/11/10 06:08:30;;;;;;;29.55;17.05;;;;;;;8.70;52.97;94537.63;5089644;27;20388;-75
2022/11/10 06:10:56;;;;;;;27.65;16.23;;;;;;;8.81;52.96;94550.47;5071619;28;20027;-76
2022/11/10 06:13:21;;;;;;;27.48;14.68;;;;;;;8.97;53.05;94569.63;5091670;27;20027;-77
2022/11/10 06:15:47;;;;;;;30.90;15.65;;;;;;;8.98;53.01;94569.38;5092163;27;20431;-77
2022/11/10 06:18:12;;;;;;;26.15;17.10;;;;;;;9.09;53.29;94577.19;5093954;27;20019;-76
2022/11/10 06:20:38;;;;;;;29.02;17.23;;;;;;;9.11;53.29;94570.53;5091982;28;20083;-76
2022/11/10 06:23:06;;;;;;;30.33;19.25;;;;;;;9.17;53.43;94569.41;5092536;28;20038;-77
2022/11/10 06:25:34;;;;;;;34.42;20.70;;;;;;;9.26;53.50;94582.84;5090626;28;20035;-77
2022/11/10 06:28:00;;;;;;;39.67;20.25;;;;;;;9.28;53.83;94578.03;5089354;28;20126;-78
2022/11/10 06:30:26;;;;;;;38.53;21.77;;;;;;;9.39;54.06;94588.22;5093225;28;20745;-77
2022/11/10 06:32:52;;;;;;;39.38;21.98;;;;;;;9.24;54.14;94563.75;5092405;27;20437;-78
2022/11/10 06:35:18;;;;;;;43.08;22.85;;;;;;;9.30;54.41;94579.31;5091312;27;20031;-77
2022/11/10 06:37:44;;;;;;;37.20;23.38;;;;;;;9.32;54.71;94571.88;5091753;27;20039;-78
2022/11/10 06:40:11;;;;;;;45.50;23.40;;;;;;;9.46;54.48;94595.84;5093097;27;20032;-78
2022/11/10 06:42:37;;;;;;;44.33;25.63;;;;;;;9.37;54.51;94577.13;5077408;28;20059;-78
2022/11/10 06:45:03;;;;;;;45.47;25.50;;;;;;;9.58;54.58;94603.38;5096295;28;20078;-76
2022/11/10 06:47:28;;;;;;;42.95;25.20;;;;;;;9.65;55.15;94603.81;5080915;28;20047;-77
2022/11/10 06:49:54;;;;;;;47.00;26.13;;;;;;;9.74;54.99;94616.16;5092893;28;20030;-78
2022/11/10 06:52:19;;;;;;;50.80;25.88;;;;;;;9.77;55.19;94612.13;5079864;28;20034;-77
2022/11/10 06:54:45;;;;;;;42.80;24.67;;;;;;;9.72;55.09;94601.59;5089338;28;20028;-77
2022/11/10 06:57:10;;;;;;;50.50;26.88;;;;;;;9.79;54.90;94594.03;5089015;28;20038;-76
2022/11/10 06:59:36;;;;;;;54.03;26.95;;;;;;;10.00;54.80;94613.13;5088410;28;20139;-77
2022/11/10 07:02:01;;;;;;;46.03;24.83;;;;;;;9.97;55.35;94614.50;5090547;28;20501;-76
2022/11/10 07:04:27;;;;;;;51.47;25.75;;;;;;;9.72;55.33;94580.34;5069894;28;20051;-77
2022/11/10 07:06:53;;;;;;;45.15;26.50;;;;;;;9.83;55.94;94616.28;5088266;28;20085;-78
2022/11/10 07:09:18;;;;;;;53.50;25.50;;;;;;;9.50;56.58;94588.88;5088342;28;20032;-76
2022/11/10 07:11:43;;;;;;;48.50;28.60;;;;;;;9.40;56.54;94559.81;5090248;28;20558;-77
2022/11/10 07:14:09;;;;;;;49.60;26.52;;;;;;;9.64;57.30;94610.19;5095867;27;20027;-77
2022/11/10 07:16:35;;;;;;;45.95;26.75;;;;;;;9.53;57.52;94611.44;5076350;27;20504;-76
2022/11/10 07:19:00;;;;;;;45.50;26.30;;;;;;;9.49;57.73;94586.53;5094239;27;20035;-76
2022/11/10 07:21:26;;;;;;;44.20;26.23;;;;;;;9.77;57.59;94620.91;5083177;27;20027;-75
2022/11/10 07:23:51;;;;;;;47.28;26.85;;;;;;;9.80;57.20;94603.59;5092597;27;20300;-77
2022/11/10 07:26:17;;;;;;;50.65;26.60;;;;;;;9.58;57.33;94595.41;5094246;27;20110;-77
2022/11/10 07:28:42;;;;;;;41.53;25.45;;;;;;;9.82;57.66;94628.00;5092386;27;20019;-77
2022/11/10 07:31:07;;;;;;;48.53;27.92;;;;;;;10.04;57.19;94625.53;5091483;27;20388;-77
2022/11/10 07:33:33;;;;;;;43.65;26.52;;;;;;;10.04;56.82;94614.09;5093195;27;20031;-77
2022/11/10 07:36:02;;;;;;;41.05;25.02;;;;;;;10.23;57.09;94628.94;5091254;27;20028;-78
2022/11/10 07:38:28;;;;;;;42.47;25.17;;;;;;;10.30;56.77;94628.59;5093516;27;20497;-77
2022/11/10 07:40:54;;;;;;;58.20;28.13;;;;;;;10.40;56.22;94617.03;5094496;27;20503;-77
2022/11/10 07:43:21;;;;;;;43.92;25.65;;;;;;;10.33;56.69;94626.13;5093679;27;20456;-77
2022/11/10 07:45:48;;;;;;;47.08;26.27;;;;;;;10.15;56.18;94576.47;5092769;27;20024;-78
2022/11/10 07:48:14;;;;;;;50.72;24.27;;;;;;;10.32;56.09;94595.28;5093499;27;20046;-77
2022/11/10 07:50:39;;;;;;;43.13;25.55;;;;;;;10.63;55.60;94626.72;5094274;27;20055;-76
2022/11/10 07:53:16;;;;;;;45.08;25.35;;;;;;;10.74;55.44;94628.91;5077091;28;20035;-77
2022/11/10 07:55:44;;;;;;;44.33;25.77;;;;;;;10.56;55.14;94613.03;5093106;27;20114;-77
2022/11/10 07:58:14;;;;;;;47.47;25.08;;;;;;;10.76;54.89;94623.28;5078822;27;20019;-77
2022/11/10 08:00:40;;;;;;;44.28;26.15;;;;;;;10.66;54.60;94592.31;5090940;27;20036;-77
2022/11/10 08:03:07;;;;;;;46.85;25.58;;;;;;;10.91;54.54;94633.66;5092656;27;20027;-77
2022/11/10 08:05:33;;;;;;;45.38;24.92;;;;;;;11.01;54.49;94628.13;5096524;27;20141;-76
2022/11/10 08:07:59;;;;;;;40.65;23.73;;;;;;;10.87;53.48;94606.03;5093874;27;20024;-77
2022/11/10 08:10:25;;;;;;;43.78;23.45;;;;;;;11.00;53.44;94610.56;5094581;27;20807;-77
2022/11/10 08:12:59;;;;;;;45.33;24.15;;;;;;;11.23;53.36;94624.00;5094998;27;20024;-77
2022/11/10 08:15:26;;;;;;;43.13;24.25;;;;;;;11.27;53.28;94614.31;5094667;27;20027;-77
2022/11/10 08:17:57;;;;;;;48.40;24.20;;;;;;;11.09;52.90;94589.41;5093462;27;20749;-78
2022/11/10 08:20:23;;;;;;;44.17;25.30;;;;;;;10.79;52.94;94560.72;5092181;27;20055;-77
2022/11/10 08:22:56;;;;;;;43.38;26.52;;;;;;;11.13;53.05;94630.31;5075317;27;20034;-77
2022/11/10 08:25:21;;;;;;;50.72;25.58;;;;;;;11.28;52.89;94623.91;5091890;27;20023;-77
2022/11/10 08:27:47;;;;;;;35.95;22.50;;;;;;;10.76;52.72;94562.09;5094997;27;20094;-76
2022/11/10 08:30:12;;;;;;;51.45;28.17;;;;;;;11.07;53.01;94621.63;5093496;27;20047;-77
2022/11/10 08:32:38;;;;;;;47.85;26.50;;;;;;;10.73;53.71;94606.03;5092355;27;20035;-76
2022/11/10 08:35:03;;;;;;;48.83;28.90;;;;;;;10.89;53.16;94590.59;5088862;28;20039;-77
2022/11/10 08:37:29;;;;;;;46.25;28.42;;;;;;;11.10;53.76;94637.00;5072144;28;20066;-78
2022/11/10 08:39:54;;;;;;;42.92;25.35;;;;;;;11.30;53.59;94641.13;5092966;27;20026;-77
2022/11/10 08:42:20;;;;;;;40.70;24.85;;;;;;;11.09;52.82;94606.16;5094159;27;20053;-77
2022/11/10 08:44:45;;;;;;;46.22;25.98;;;;;;;11.32;52.57;94633.66;5091103;27;20115;-77
2022/11/10 08:47:10;;;;;;;50.35;27.45;;;;;;;11.35;52.92;94616.28;5079799;27;20077;-77
2022/11/10 08:49:36;;;;;;;49.33;28.45;;;;;;;11.03;53.70;94614.53;5092429;27;20102;-76
2022/11/10 08:52:01;;;;;;;50.15;30.00;;;;;;;11.20;53.12;94609.38;5088917;27;20030;-77
2022/11/10 08:54:27;;;;;;;47.60;29.25;;;;;;;11.54;52.49;94641.72;5091382;27;20058;-77
2022/11/10 08:56:53;;;;;;;43.17;24.67;;;;;;;11.47;52.09;94619.22;5072453;28;21064;-78
2022/11/10 08:59:18;;;;;;;41.53;25.30;;;;;;;11.71;51.89;94633.13;5090954;28;20023;-78
2022/11/10 09:01:44;;;;;;;42.75;25.90;;;;;;;11.61;51.16;94614.69;5091826;27;20461;-77
2022/11/10 09:04:09;;;;;;;43.92;25.92;;;;;;;11.49;51.10;94609.09;5091810;27;20053;-77
2022/11/10 09:06:34;;;;;;;39.05;22.55;;;;;;;11.46;51.63;94622.97;5093192;27;20316;-76
2022/11/10 09:09:00;;;;;;;38.17;23.73;;;;;;;11.57;51.58;94643.81;5089579;27;20091;-77
2022/11/10 09:11:25;;;;;;;40.83;23.45;;;;;;;11.54;52.05;94646.31;5095316;27;20369;-77
2022/11/10 09:13:51;;;;;;;37.20;22.88;;;;;;;11.53;51.85;94629.53;5093465;27;20028;-77
2022/11/10 09:16:16;;;;;;;42.10;23.50;;;;;;;11.50;51.52;94613.31;5089410;27;20028;-76
2022/11/10 09:18:41;;;;;;;37.70;22.33;;;;;;;11.62;51.72;94642.13;5092995;27;20548;-77
2022/11/10 09:21:10;;;;;;;42.55;22.00;;;;;;;11.93;51.69;94643.81;5092520;27;20438;-77
2022/11/10 09:23:36;;;;;;;39.55;23.02;;;;;;;12.02;51.98;94636.69;5093662;27;20446;-76
2022/11/10 09:26:01;;;;;;;36.42;22.38;;;;;;;11.98;51.79;94641.03;5071583;28;20733;-78
2022/11/10 09:28:27;;;;;;;42.88;23.52;;;;;;;11.74;51.42;94602.41;5088021;27;20023;-77
2022/11/10 09:30:52;;;;;;;37.70;22.58;;;;;;;11.98;51.25;94609.03;5073606;28;20016;-77
2022/11/10 09:33:18;;;;;;;38.45;22.48;;;;;;;12.30;51.17;94639.25;5092840;27;20032;-76
2022/11/10 09:35:44;;;;;;;43.42;22.33;;;;;;;12.15;51.45;94632.41;5074305;28;20043;-77
2022/11/10 09:38:10;;;;;;;43.58;23.85;;;;;;;12.11;51.23;94633.31;5096438;27;20024;-77
2022/11/10 09:41:03;;;;;;;39.45;22.08;;;;;;;12.35;51.20;94636.47;5095672;27;20041;-77
2022/11/10 09:43:43;;;;;;;36.20;22.60;;;;;;;12.47;50.90;94626.81;5095343;27;20031;-78
2022/11/10 09:46:19;;;;;;;42.05;22.02;;;;;;;12.48;51.37;94619.59;5091579;27;20031;-77
2022/11/10 09:48:50;;;;;;;43.30;23.48;;;;;;;12.29;51.43;94587.00;5098484;27;20035;-77
2022/11/10 09:51:22;;;;;;;37.22;23.60;;;;;;;12.31;51.33;94595.50;5078586;27;20038;-77
2022/11/10 09:53:55;;;;;;;40.38;22.20;;;;;;;12.12;51.81;94621.56;5094559;27;20020;-76
2022/11/10 09:56:46;;;;;;;41.88;23.08;;;;;;;12.53;51.52;94627.47;5096033;27;20217;-76
2022/11/10 09:59:23;;;;;;;39.67;24.48;;;;;;;12.34;51.53;94605.53;5076399;28;20047;-77
2022/11/10 10:02:15;;;;;;;45.10;24.73;;;;;;;12.47;51.82;94624.13;5081080;27;20024;-77
2022/11/10 10:04:41;;;;;;;39.75;23.63;;;;;;;12.65;51.55;94622.41;5095053;27;20109;-77
2022/11/10 10:07:13;;;;;;;41.05;24.88;;;;;;;12.48;51.56;94622.25;5094083;27;20035;-77
2022/11/10 10:10:18;;;;;;;40.55;23.77;;;;;;;12.47;51.17;94572.66;5083965;28;20039;-78
2022/11/10 10:13:05;;;;;;;41.03;24.75;;;;;;;12.66;52.01;94623.97;5082144;27;20031;-77
2022/11/10 10:16:04;;;;;;;40.92;23.92;;;;;;;12.79;51.22;94617.75;5097744;27;20022;-76
2022/11/10 10:18:41;;;;;;;39.58;23.65;;;;;;;12.89;51.49;94622.84;5075685;28;20311;-77
2022/11/10 10:21:25;;;;;;;38.00;24.20;;;;;;;12.76;51.21;94618.34;5095409;28;20054;-77
2022/11/10 10:23:52;;;;;;;42.10;23.23;;;;;;;12.29;51.40;94577.09;5092701;28;20043;-76
2022/11/10 10:26:23;;;;;;;45.67;24.00;;;;;;;12.13;51.45;94557.22;5083627;28;20035;-76
2022/11/10 10:28:50;;;;;;;44.22;23.65;;;;;;;12.64;51.49;94604.81;5095471;28;20023;-76
2022/11/10 10:31:25;;;;;;;42.00;24.38;;;;;;;12.86;50.70;94614.63;5096432;28;20028;-76
2022/11/10 10:33:52;;;;;;;41.05;25.05;;;;;;;12.89;51.02;94622.84;5093619;27;20057;-77
2022/11/10 10:36:22;;;;;;;46.17;25.00;;;;;;;12.99;51.01;94615.63;5094856;28;20020;-79
2022/11/10 10:38:51;;;;;;;41.75;25.65;;;;;;;13.00;50.50;94590.53;5087419;27;20023;-77
2022/11/10 10:41:31;;;;;;;41.40;24.27;;;;;;;13.31;50.37;94613.38;5092279;28;20028;-77
2022/11/10 10:43:59;;;;;;;43.42;22.40;;;;;;;13.35;49.94;94594.09;5076952;28;20069;-76
2022/11/10 10:46:30;;;;;;;38.58;24.10;;;;;;;13.48;49.53;94607.31;5095707;28;20024;-77
2022/11/10 10:49:20;;;;;;;45.03;24.33;;;;;;;13.34;49.36;94585.28;5095199;28;20551;-77
2022/11/10 10:51:47;;;;;;;48.92;27.38;;;;;;;13.41;49.00;94590.94;5098196;28;20101;-77
2022/11/10 10:54:32;;;;;;;46.60;24.88;;;;;;;13.61;49.27;94600.28;5095877;28;20027;-77
2022/11/10 10:57:20;;;;;;;45.80;24.40;;;;;;;13.68;48.98;94592.59;5097820;28;20042;-77
2022/11/10 10:59:46;;;;;;;51.97;26.85;;;;;;;13.42;49.07;94602.41;5096028;28;20611;-78
2022/11/10 11:02:25;;;;;;;45.45;26.13;;;;;;;13.52;49.05;94586.88;5097880;28;20237;-77
2022/11/10 11:05:08;;;;;;;44.25;24.20;;;;;;;13.14;49.21;94532.44;5096328;28;20028;-77
2022/11/10 11:07:34;;;;;;;43.80;25.55;;;;;;;13.39;48.91;94566.44;5097761;28;20024;-76
2022/11/10 11:10:00;;;;;;;44.30;26.40;;;;;;;13.40;49.07;94581.34;5091777;28;20032;-76
2022/11/10 11:12:30;;;;;;;46.65;26.85;;;;;;;12.91;49.56;94555.00;5096952;28;20023;-77
2022/11/10 11:15:25;;;;;;;41.65;24.27;;;;;;;13.16;49.55;94567.63;5098816;28;20023;-78
2022/11/10 11:17:56;;;;;;;43.38;24.52;;;;;;;13.21;49.48;94538.09;5077341;28;20031;-76
2022/11/10 11:20:51;;;;;;;39.47;23.65;;;;;;;13.48;51.13;94575.25;5099226;28;20044;-78
2022/11/10 11:23:41;;;;;;;45.03;24.03;;;;;;;13.45;49.59;94583.84;5095853;28;20041;-76
2022/11/10 11:26:16;;;;;;;41.53;24.52;;;;;;;13.59;49.24;94576.53;5097057;28;20091;-77
2022/11/10 11:29:21;;;;;;;44.58;23.60;;;;;;;13.83;48.85;94570.75;5098383;28;20020;-77
2022/11/10 11:31:49;;;;;;;43.20;23.63;;;;;;;13.79;48.12;94569.78;5022528;28;20083;-76
2022/11/10 11:34:18;;;;;;;39.83;23.75;;;;;;;13.83;48.27;94567.28;5073522;28;20032;-76
2022/11/10 11:36:46;;;;;;;38.22;22.63;;;;;;;14.00;47.82;94561.91;5101371;28;20024;-77
2022/11/10 11:39:18;;;;;;;39.78;25.40;;;;;;;14.14;47.61;94567.88;5095929;28;20019;-78
2022/11/10 11:42:22;;;;;;;43.33;21.90;;;;;;;14.27;48.18;94552.75;5096780;28;20108;-78